Time;durP1;ratioP1;P1;durP2;ratioP2;P2;SDS_P1;SDS_P2;PMS_P1;PMS_P2;Temp;Humidity;BMP_temperature;BMP_pressure;BME280_temperature;BME280_humidity;BME280_pressure;Samples;Min_cycle;Max_cycle;Signal;HPM_P1;HPM_P2
2023/10/31 00:00:45;;;;;;;0.00;0.00;;;13.70;75.50;;;;;;5006358;28;20499;-30
2023/10/31 00:03:12;;;;;;;0.00;0.00;;;13.70;75.50;;;;;;5011863;28;20703;-30
2023/10/31 00:05:42;;;;;;;0.00;0.00;;;13.70;75.60;;;;;;5022464;28;20611;-31
2023/10/31 00:08:12;;;;;;;0.00;0.00;;;13.80;75.70;;;;;;5026474;28;20211;-31
2023/10/31 00:10:39;;;;;;;0.00;0.00;;;13.70;75.50;;;;;;5028184;28;20479;-31
2023/10/31 00:13:06;;;;;;;0.00;0.00;;;13.80;75.60;;;;;;5027052;28;20197;-31
2023/10/31 00:15:33;;;;;;;0.00;0.00;;;13.80;75.70;;;;;;5025881;28;20671;-31
2023/10/31 00:18:00;;;;;;;0.00;0.00;;;13.80;75.70;;;;;;5024010;28;20270;-31
2023/10/31 00:20:28;;;;;;;0.00;0.00;;;13.80;75.70;;;;;;5024419;28;20586;-30
2023/10/31 00:22:57;;;;;;;0.00;0.00;;;13.80;75.60;;;;;;5023226;28;20679;-31
2023/10/31 00:25:24;;;;;;;0.00;0.00;;;13.80;75.60;;;;;;5025860;28;20300;-31
2023/10/31 00:27:51;;;;;;;0.00;0.00;;;13.80;75.60;;;;;;5025654;28;20212;-31
2023/10/31 00:30:23;;;;;;;0.00;0.00;;;13.90;75.70;;;;;;5023903;28;20216;-30
2023/10/31 00:32:50;;;;;;;0.00;0.00;;;13.90;75.80;;;;;;5023952;28;20292;-30
2023/10/31 00:35:17;;;;;;;0.00;0.00;;;13.80;75.70;;;;;;5021786;28;20734;-30
2023/10/31 00:37:51;;;;;;;0.00;0.00;;;13.90;75.70;;;;;;5025206;28;20197;-31
2023/10/31 00:40:21;;;;;;;0.00;0.00;;;13.90;75.70;;;;;;5024447;28;20784;-31
2023/10/31 00:42:50;;;;;;;0.00;0.00;;;13.90;75.60;;;;;;5024550;28;20591;-31
2023/10/31 00:45:17;;;;;;;0.00;0.00;;;13.90;75.60;;;;;;5024262;28;20684;-31
2023/10/31 00:47:45;;;;;;;0.00;0.00;;;13.90;75.60;;;;;;5023636;28;20209;-30
2023/10/31 00:50:16;;;;;;;0.00;0.00;;;13.90;75.60;;;;;;5024081;28;20225;-31
2023/10/31 00:52:46;;;;;;;0.00;0.00;;;13.90;75.60;;;;;;5025447;28;20263;-31
2023/10/31 00:55:13;;;;;;;0.00;0.00;;;13.90;75.60;;;;;;5023823;28;20295;-31
2023/10/31 00:57:40;;;;;;;0.00;0.00;;;13.90;75.60;;;;;;5022692;28;20303;-30
2023/10/31 01:00:09;;;;;;;0.00;0.00;;;13.90;75.60;;;;;;5025561;28;20722;-31
2023/10/31 01:02:41;;;;;;;0.00;0.00;;;13.90;75.60;;;;;;5026184;28;20240;-31
2023/10/31 01:05:10;;;;;;;0.00;0.00;;;13.90;75.60;;;;;;5027179;28;20231;-31
2023/10/31 01:07:37;;;;;;;0.00;0.00;;;13.90;75.60;;;;;;5008006;28;20213;-31
2023/10/31 01:10:07;;;;;;;0.00;0.00;;;13.90;75.60;;;;;;5005990;28;20207;-31
2023/10/31 01:12:39;;;;;;;0.00;0.00;;;13.80;75.60;;;;;;5020428;28;20276;-31
2023/10/31 01:15:07;;;;;;;0.00;0.00;;;13.80;75.50;;;;;;5005270;28;20304;-31
2023/10/31 01:17:36;;;;;;;0.00;0.00;;;13.80;75.60;;;;;;5018064;28;20232;-31
2023/10/31 01:20:04;;;;;;;0.00;0.00;;;13.80;75.60;;;;;;5023678;28;20695;-31
2023/10/31 01:22:31;;;;;;;0.00;0.00;;;13.80;75.60;;;;;;5025120;28;20209;-31
2023/10/31 01:24:58;;;;;;;0.00;0.00;;;13.80;75.70;;;;;;5025233;28;20209;-31
2023/10/31 01:27:25;;;;;;;0.00;0.00;;;13.80;75.70;;;;;;5016946;28;20224;-31
2023/10/31 01:29:55;;;;;;;0.00;0.00;;;13.80;75.70;;;;;;5019909;28;20288;-31
2023/10/31 01:32:22;;;;;;;0.00;0.00;;;13.80;75.80;;;;;;5003400;28;20226;-31
2023/10/31 01:34:51;;;;;;;0.00;0.00;;;13.80;75.70;;;;;;5020224;28;20268;-31
2023/10/31 01:37:21;;;;;;;0.00;0.00;;;13.90;75.80;;;;;;5008522;28;20204;-31
2023/10/31 01:39:48;;;;;;;0.00;0.00;;;13.90;75.80;;;;;;5023429;28;20205;-31
2023/10/31 01:42:16;;;;;;;0.00;0.00;;;13.90;75.80;;;;;;5040080;28;20229;-31
2023/10/31 01:44:48;;;;;;;0.00;0.00;;;13.80;75.70;;;;;;5023261;28;20232;-31
2023/10/31 01:47:18;;;;;;;0.00;0.00;;;13.80;75.70;;;;;;5025442;28;20300;-31
2023/10/31 01:49:48;;;;;;;0.00;0.00;;;13.90;75.70;;;;;;5009252;28;20323;-31
2023/10/31 01:52:15;;;;;;;0.00;0.00;;;13.80;75.70;;;;;;5012825;28;20245;-30
2023/10/31 01:54:47;;;;;;;0.00;0.00;;;13.90;75.70;;;;;;5011086;28;20878;-30
2023/10/31 01:57:14;;;;;;;0.00;0.00;;;13.80;75.70;;;;;;5010946;28;20333;-30
2023/10/31 01:59:42;;;;;;;0.00;0.00;;;13.80;75.70;;;;;;5038526;28;20296;-30
2023/10/31 02:02:09;;;;;;;0.00;0.00;;;13.80;75.70;;;;;;5027845;28;20646;-31
2023/10/31 02:04:39;;;;;;;0.00;0.00;;;13.80;75.80;;;;;;5037951;28;20209;-30
2023/10/31 02:07:06;;;;;;;0.00;0.00;;;13.80;75.70;;;;;;5021758;28;20205;-30
2023/10/31 02:09:38;;;;;;;0.00;0.00;;;13.80;75.70;;;;;;5013945;28;20642;-31
2023/10/31 02:12:06;;;;;;;0.00;0.00;;;13.80;75.70;;;;;;5028023;28;20223;-30
2023/10/31 02:14:33;;;;;;;0.00;0.00;;;13.80;75.60;;;;;;5027600;28;20303;-30
2023/10/31 02:17:02;;;;;;;0.00;0.00;;;13.80;75.60;;;;;;5026275;28;20292;-30
2023/10/31 02:19:31;;;;;;;0.00;0.00;;;13.80;75.60;;;;;;5021755;28;20201;-31
2023/10/31 02:22:01;;;;;;;0.00;0.00;;;13.80;75.60;;;;;;5027009;28;20217;-30
2023/10/31 02:24:33;;;;;;;0.00;0.00;;;13.70;75.60;;;;;;5028101;28;20864;-30
2023/10/31 02:27:03;;;;;;;0.00;0.00;;;13.70;75.50;;;;;;5027886;28;20295;-30
2023/10/31 02:29:30;;;;;;;0.00;0.00;;;13.70;75.60;;;;;;5025691;28;20208;-30
2023/10/31 02:32:02;;;;;;;0.00;0.00;;;13.70;75.50;;;;;;5009798;28;20231;-30
2023/10/31 02:34:29;;;;;;;0.00;0.00;;;13.70;75.60;;;;;;5027849;28;20229;-31
2023/10/31 02:36:57;;;;;;;0.00;0.00;;;13.60;75.60;;;;;;5027677;28;20616;-30
2023/10/31 02:39:24;;;;;;;0.00;0.00;;;13.60;75.60;;;;;;5028141;28;20633;-31
2023/10/31 02:41:53;;;;;;;0.00;0.00;;;13.60;75.60;;;;;;5026712;28;20311;-31
2023/10/31 02:44:20;;;;;;;0.00;0.00;;;13.60;75.50;;;;;;5025654;28;20262;-31
2023/10/31 02:46:52;;;;;;;0.00;0.00;;;13.60;75.60;;;;;;5021778;28;20307;-30
2023/10/31 02:49:22;;;;;;;0.00;0.00;;;13.60;75.70;;;;;;5029316;28;20201;-30
2023/10/31 02:51:51;;;;;;;0.00;0.00;;;13.60;75.70;;;;;;5028395;28;20229;-30
2023/10/31 02:54:18;;;;;;;0.00;0.00;;;13.60;75.60;;;;;;5029620;28;20296;-30
2023/10/31 02:56:47;;;;;;;0.00;0.00;;;13.60;75.70;;;;;;5028745;28;21099;-30
2023/10/31 02:59:17;;;;;;;0.00;0.00;;;13.50;75.60;;;;;;5028288;28;20710;-30
2023/10/31 03:01:46;;;;;;;0.00;0.00;;;13.50;75.60;;;;;;5020333;28;20241;-30
2023/10/31 03:04:16;;;;;;;0.00;0.00;;;13.50;75.60;;;;;;5020907;28;20205;-30
2023/10/31 03:06:43;;;;;;;0.00;0.00;;;13.50;75.70;;;;;;5005902;28;20590;-30
2023/10/31 03:09:17;;;;;;;0.00;0.00;;;13.50;75.70;;;;;;5006261;28;20533;-30
2023/10/31 03:11:44;;;;;;;0.00;0.00;;;13.50;75.70;;;;;;5010146;28;20747;-30
2023/10/31 03:14:11;;;;;;;0.00;0.00;;;13.50;75.80;;;;;;5027079;28;20739;-30
2023/10/31 03:16:41;;;;;;;0.00;0.00;;;13.50;75.70;;;;;;5020518;28;20271;-30
2023/10/31 03:19:11;;;;;;;0.00;0.00;;;13.40;75.60;;;;;;5005689;28;20695;-29
2023/10/31 03:21:42;;;;;;;0.00;0.00;;;13.40;75.60;;;;;;5007392;28;20233;-30
2023/10/31 03:24:10;;;;;;;0.00;0.00;;;13.40;75.70;;;;;;5021985;28;20493;-30
2023/10/31 03:26:39;;;;;;;0.00;0.00;;;13.40;75.60;;;;;;5008871;28;20271;-31
2023/10/31 03:29:08;;;;;;;0.00;0.00;;;13.40;75.70;;;;;;5026908;28;20727;-30
2023/10/31 03:31:36;;;;;;;0.00;0.00;;;13.40;75.70;;;;;;5024588;28;20225;-30
2023/10/31 03:34:03;;;;;;;0.00;0.00;;;13.40;75.80;;;;;;5025525;28;20216;-30
2023/10/31 03:36:30;;;;;;;0.00;0.00;;;13.40;75.80;;;;;;5026906;28;20284;-30
2023/10/31 03:38:57;;;;;;;0.00;0.00;;;13.40;75.80;;;;;;5024409;28;20247;-30
2023/10/31 03:41:27;;;;;;;0.00;0.00;;;13.40;75.80;;;;;;5013848;28;20229;-30
2023/10/31 03:43:54;;;;;;;0.00;0.00;;;13.40;75.80;;;;;;5027249;28;20766;-30
2023/10/31 03:46:24;;;;;;;0.00;0.00;;;13.40;75.70;;;;;;5023994;28;20206;-30
2023/10/31 03:48:51;;;;;;;0.00;0.00;;;13.40;75.70;;;;;;5007570;28;20296;-30
2023/10/31 03:51:20;;;;;;;0.00;0.00;;;13.40;75.70;;;;;;5008339;28;20218;-30
2023/10/31 03:53:47;;;;;;;0.00;0.00;;;13.40;75.70;;;;;;5006907;28;20201;-30
2023/10/31 03:56:15;;;;;;;0.00;0.00;;;13.40;75.70;;;;;;5006729;28;20201;-30
2023/10/31 03:58:46;;;;;;;0.00;0.00;;;13.40;75.70;;;;;;5013342;28;20679;-30
2023/10/31 04:01:13;;;;;;;0.00;0.00;;;13.30;75.70;;;;;;5027179;28;20217;-30
2023/10/31 04:03:46;;;;;;;0.00;0.00;;;13.30;75.60;;;;;;5028043;28;20250;-30
2023/10/31 04:06:16;;;;;;;0.00;0.00;;;13.30;75.60;;;;;;5026057;28;20200;-30
2023/10/31 04:08:43;;;;;;;0.00;0.00;;;13.30;75.60;;;;;;5039877;28;20319;-30
2023/10/31 04:11:10;;;;;;;0.00;0.00;;;13.30;75.60;;;;;;5025532;28;20222;-30
2023/10/31 04:13:37;;;;;;;0.00;0.00;;;13.20;75.60;;;;;;5026082;28;20233;-30
2023/10/31 04:16:10;;;;;;;0.00;0.00;;;13.20;75.60;;;;;;5025525;28;20251;-30
2023/10/31 04:18:39;;;;;;;0.00;0.00;;;13.20;75.70;;;;;;5026037;28;20309;-30
2023/10/31 04:21:08;;;;;;;0.00;0.00;;;13.20;75.60;;;;;;5023159;28;20308;-30
2023/10/31 04:23:37;;;;;;;0.00;0.00;;;13.20;75.70;;;;;;5024546;28;20728;-30
2023/10/31 04:26:11;;;;;;;0.00;0.00;;;13.20;75.60;;;;;;5025734;28;20209;-30
2023/10/31 04:28:40;;;;;;;0.00;0.00;;;13.10;75.60;;;;;;5025950;28;20262;-30
2023/10/31 04:31:07;;;;;;;0.00;0.00;;;13.10;75.60;;;;;;5002868;28;20220;-30
2023/10/31 04:33:35;;;;;;;0.00;0.00;;;13.10;75.60;;;;;;5005901;28;20319;-30
2023/10/31 04:36:05;;;;;;;0.00;0.00;;;13.10;75.60;;;;;;5009352;28;20288;-30
2023/10/31 04:38:37;;;;;;;0.00;0.00;;;13.10;75.50;;;;;;5007869;28;20292;-30
2023/10/31 04:41:07;;;;;;;0.00;0.00;;;13.00;75.40;;;;;;5033248;28;20339;-30
2023/10/31 04:43:37;;;;;;;0.00;0.00;;;13.00;76.30;;;;;;5027626;28;20205;-30
2023/10/31 04:46:06;;;;;;;0.00;0.00;;;13.00;75.60;;;;;;5025932;28;20201;-31
2023/10/31 04:48:33;;;;;;;0.00;0.00;;;13.00;75.70;;;;;;5027504;28;20219;-35
2023/10/31 04:51:03;;;;;;;0.00;0.00;;;13.00;75.70;;;;;;5021861;28;20256;-31
2023/10/31 04:53:34;;;;;;;0.00;0.00;;;12.90;75.60;;;;;;5006193;28;20201;-30
2023/10/31 04:56:15;;;;;;;0.00;0.00;;;12.90;75.60;;;;;;5004281;28;20676;-30
2023/10/31 04:58:43;;;;;;;0.00;0.00;;;12.90;75.60;;;;;;5004148;28;20206;-30
2023/10/31 05:01:13;;;;;;;0.00;0.00;;;12.90;75.70;;;;;;5005006;28;20213;-30
2023/10/31 05:03:43;;;;;;;0.00;0.00;;;12.90;75.70;;;;;;5014409;28;20858;-30
2023/10/31 05:06:13;;;;;;;0.00;0.00;;;12.90;75.80;;;;;;5007462;28;20221;-30
2023/10/31 05:08:42;;;;;;;0.00;0.00;;;12.90;75.70;;;;;;5025438;28;20312;-31
2023/10/31 05:11:10;;;;;;;0.00;0.00;;;12.80;75.60;;;;;;5024242;28;20587;-30
2023/10/31 05:13:42;;;;;;;0.00;0.00;;;12.80;75.60;;;;;;5025348;28;20201;-30
2023/10/31 05:16:11;;;;;;;0.00;0.00;;;12.80;75.60;;;;;;5023128;28;20208;-30
2023/10/31 05:18:41;;;;;;;0.00;0.00;;;12.80;75.70;;;;;;5025417;28;20575;-31
2023/10/31 05:21:11;;;;;;;0.00;0.00;;;12.80;75.70;;;;;;5025472;28;20201;-31
2023/10/31 05:23:38;;;;;;;0.00;0.00;;;12.80;75.70;;;;;;5025023;28;20237;-30
2023/10/31 05:26:08;;;;;;;0.00;0.00;;;12.80;75.70;;;;;;5028979;28;20208;-30
2023/10/31 05:28:35;;;;;;;0.00;0.00;;;12.70;75.60;;;;;;5025407;28;20204;-30
2023/10/31 05:31:03;;;;;;;0.00;0.00;;;12.70;75.70;;;;;;5009354;28;20201;-30
2023/10/31 05:33:33;;;;;;;0.00;0.00;;;12.70;75.70;;;;;;5026319;28;20230;-31
2023/10/31 05:36:00;;;;;;;0.00;0.00;;;12.70;75.70;;;;;;5013217;28;20193;-31
2023/10/31 05:38:32;;;;;;;0.00;0.00;;;12.70;75.70;;;;;;5012715;28;20296;-30
2023/10/31 05:41:03;;;;;;;0.00;0.00;;;12.70;75.80;;;;;;5014580;28;20201;-30
2023/10/31 05:43:33;;;;;;;0.00;0.00;;;12.70;75.90;;;;;;5014803;28;20197;-30
2023/10/31 05:46:00;;;;;;;0.00;0.00;;;12.70;75.90;;;;;;5028565;28;20221;-30
2023/10/31 05:48:28;;;;;;;0.00;0.00;;;12.70;75.90;;;;;;5026331;28;20236;-30
2023/10/31 05:50:55;;;;;;;0.00;0.00;;;12.70;75.90;;;;;;5027897;28;20215;-30
2023/10/31 05:53:27;;;;;;;0.00;0.00;;;12.70;76.00;;;;;;5015954;28;20224;-31
2023/10/31 05:55:54;;;;;;;0.00;0.00;;;12.70;76.00;;;;;;4991306;28;20204;-30
2023/10/31 05:58:24;;;;;;;0.00;0.00;;;12.70;76.00;;;;;;5022506;28;20216;-31
2023/10/31 06:00:51;;;;;;;0.00;0.00;;;12.70;76.00;;;;;;5006985;28;20225;-30
2023/10/31 06:03:18;;;;;;;0.00;0.00;;;12.70;76.00;;;;;;5030254;28;20231;-31
2023/10/31 06:05:48;;;;;;;0.00;0.00;;;12.70;76.00;;;;;;5026628;28;20239;-31
2023/10/31 06:08:17;;;;;;;0.00;0.00;;;12.70;76.00;;;;;;5026542;28;20307;-31
2023/10/31 06:10:44;;;;;;;0.00;0.00;;;12.70;76.10;;;;;;5024334;28;20232;-30
2023/10/31 06:13:12;;;;;;;0.00;0.00;;;12.70;76.10;;;;;;5021028;28;20224;-31
2023/10/31 06:15:42;;;;;;;0.00;0.00;;;12.80;76.10;;;;;;5020830;28;20200;-31
2023/10/31 06:18:13;;;;;;;0.00;0.00;;;12.80;76.20;;;;;;5024513;28;20683;-30
2023/10/31 06:20:40;;;;;;;0.00;0.00;;;12.80;76.20;;;;;;5014187;28;20224;-31
2023/10/31 06:23:09;;;;;;;0.00;0.00;;;12.80;76.10;;;;;;5011514;28;20244;-31
2023/10/31 06:25:37;;;;;;;0.00;0.00;;;12.80;76.00;;;;;;5031770;28;20223;-30
2023/10/31 06:28:09;;;;;;;0.00;0.00;;;12.80;76.10;;;;;;5022407;28;20204;-31
2023/10/31 06:30:38;;;;;;;0.00;0.00;;;12.80;76.10;;;;;;5026890;28;20248;-31
2023/10/31 06:33:10;;;;;;;0.00;0.00;;;12.80;76.10;;;;;;5031433;28;20225;-30
2023/10/31 06:35:38;;;;;;;0.00;0.00;;;12.80;76.20;;;;;;5018526;28;20726;-31
2023/10/31 06:38:05;;;;;;;0.00;0.00;;;12.80;76.10;;;;;;5027537;28;20231;-31
2023/10/31 06:40:34;;;;;;;0.00;0.00;;;12.80;76.00;;;;;;5027855;28;20240;-31
2023/10/31 06:43:02;;;;;;;0.00;0.00;;;12.80;76.00;;;;;;5027158;28;20301;-31
2023/10/31 06:45:31;;;;;;;0.00;0.00;;;12.80;76.10;;;;;;5027206;28;20282;-31
2023/10/31 06:47:58;;;;;;;0.00;0.00;;;12.80;76.10;;;;;;5025797;28;20573;-31
2023/10/31 06:50:25;;;;;;;0.00;0.00;;;12.80;76.10;;;;;;5027646;28;20861;-31
2023/10/31 06:52:55;;;;;;;0.00;0.00;;;12.80;76.10;;;;;;5027204;28;20729;-30
2023/10/31 06:55:22;;;;;;;0.00;0.00;;;12.80;76.10;;;;;;5017942;28;20204;-31
2023/10/31 06:57:50;;;;;;;0.00;0.00;;;12.80;76.10;;;;;;5023221;28;20303;-31
2023/10/31 07:00:17;;;;;;;0.00;0.00;;;12.80;76.10;;;;;;5024703;28;20241;-30
2023/10/31 07:02:50;;;;;;;0.00;0.00;;;12.80;76.90;;;;;;5039587;28;20327;-30
2023/10/31 07:05:22;;;;;;;0.00;0.00;;;12.80;76.10;;;;;;5028504;28;20290;-30
2023/10/31 07:07:52;;;;;;;0.00;0.00;;;12.80;76.10;;;;;;5031700;28;20654;-31
2023/10/31 07:10:24;;;;;;;0.00;0.00;;;12.80;76.10;;;;;;5024202;28;20224;-31
2023/10/31 07:12:51;;;;;;;0.00;0.00;;;12.80;76.10;;;;;;5025196;28;20742;-31
2023/10/31 07:15:18;;;;;;;0.00;0.00;;;12.80;76.20;;;;;;5022738;28;20684;-30
2023/10/31 07:17:48;;;;;;;0.00;0.00;;;12.80;76.20;;;;;;5025612;28;20286;-31
2023/10/31 07:20:15;;;;;;;0.00;0.00;;;12.80;76.20;;;;;;5025145;28;20228;-30
2023/10/31 07:22:42;;;;;;;0.00;0.00;;;12.80;76.10;;;;;;5019239;28;20231;-30
2023/10/31 07:25:10;;;;;;;0.00;0.00;;;12.80;76.10;;;;;;5020647;28;20206;-31
2023/10/31 07:27:37;;;;;;;0.00;0.00;;;12.80;76.20;;;;;;5020426;28;20300;-30
2023/10/31 07:30:09;;;;;;;0.00;0.00;;;12.80;76.20;;;;;;5007594;28;20206;-31
2023/10/31 07:32:36;;;;;;;0.00;0.00;;;12.80;76.20;;;;;;5028757;28;20223;-30
2023/10/31 07:35:06;;;;;;;0.00;0.00;;;12.80;76.90;;;;;;5027441;28;20227;-30
2023/10/31 07:37:36;;;;;;;0.00;0.00;;;12.80;76.20;;;;;;5019457;28;20205;-31
2023/10/31 07:40:04;;;;;;;0.00;0.00;;;12.80;76.20;;;;;;5026867;28;20290;-31
2023/10/31 07:42:31;;;;;;;0.00;0.00;;;12.80;76.00;;;;;;5019993;28;20206;-31
2023/10/31 07:44:58;;;;;;;0.00;0.00;;;12.80;76.20;;;;;;5020097;28;20252;-31
2023/10/31 07:47:26;;;;;;;0.00;0.00;;;12.80;76.20;;;;;;5023113;28;20258;-30
2023/10/31 07:49:55;;;;;;;0.00;0.00;;;12.80;76.30;;;;;;5047316;28;20258;-31
2023/10/31 07:52:24;;;;;;;0.00;0.00;;;12.80;76.30;;;;;;5048885;28;20224;-30
2023/10/31 07:54:54;;;;;;;0.00;0.00;;;12.80;76.30;;;;;;5033540;28;20201;-30
2023/10/31 07:57:21;;;;;;;0.00;0.00;;;12.80;76.40;;;;;;5022413;28;20251;-31
2023/10/31 07:59:53;;;;;;;0.00;0.00;;;12.80;76.40;;;;;;5034489;28;20252;-31
2023/10/31 08:02:20;;;;;;;0.00;0.00;;;12.90;76.50;;;;;;5021272;28;20339;-31
2023/10/31 08:04:48;;;;;;;0.00;0.00;;;12.90;76.40;;;;;;5026218;28;20216;-31
2023/10/31 08:07:17;;;;;;;0.00;0.00;;;12.90;76.50;;;;;;5027880;28;20291;-30
2023/10/31 08:09:47;;;;;;;0.00;0.00;;;12.90;76.40;;;;;;5011017;28;20208;-31
2023/10/31 08:12:14;;;;;;;0.00;0.00;;;12.90;76.50;;;;;;5027196;28;20233;-31
2023/10/31 08:14:44;;;;;;;0.00;0.00;;;12.90;76.50;;;;;;5027289;28;20200;-31
2023/10/31 08:17:11;;;;;;;0.00;0.00;;;13.00;76.60;;;;;;5024736;28;20203;-31
2023/10/31 08:19:43;;;;;;;0.00;0.00;;;13.00;76.60;;;;;;5021386;28;20640;-31
2023/10/31 08:22:13;;;;;;;0.00;0.00;;;13.00;76.50;;;;;;5029670;28;20723;-31
2023/10/31 08:24:40;;;;;;;0.00;0.00;;;13.00;76.50;;;;;;5033438;28;20194;-31
2023/10/31 08:27:10;;;;;;;0.00;0.00;;;13.10;76.60;;;;;;5024459;28;20328;-31
2023/10/31 08:29:40;;;;;;;0.00;0.00;;;13.10;76.60;;;;;;5026668;28;20764;-31
2023/10/31 08:32:10;;;;;;;0.00;0.00;;;13.10;76.70;;;;;;5032072;28;20594;-31
2023/10/31 08:34:39;;;;;;;0.00;0.00;;;13.10;76.60;;;;;;5033361;28;20608;-31
2023/10/31 08:37:09;;;;;;;0.00;0.00;;;13.10;76.60;;;;;;5017293;28;20211;-31
2023/10/31 08:39:38;;;;;;;0.00;0.00;;;13.20;76.60;;;;;;5007450;28;20263;-31
2023/10/31 08:42:06;;;;;;;0.00;0.00;;;13.20;76.70;;;;;;5026224;28;20220;-31
2023/10/31 08:44:37;;;;;;;0.00;0.00;;;13.20;76.60;;;;;;5027735;28;20209;-31
2023/10/31 08:47:07;;;;;;;0.00;0.00;;;13.20;76.60;;;;;;5007136;28;20317;-31
2023/10/31 08:49:34;;;;;;;0.00;0.00;;;13.20;76.60;;;;;;5007368;28;20197;-31
2023/10/31 08:52:04;;;;;;;0.00;0.00;;;13.20;76.60;;;;;;5007359;28;20208;-31
2023/10/31 08:54:36;;;;;;;0.00;0.00;;;13.30;76.70;;;;;;5028094;28;20216;-31
2023/10/31 08:57:03;;;;;;;0.00;0.00;;;13.30;76.70;;;;;;5045989;28;20258;-31
2023/10/31 08:59:32;;;;;;;0.00;0.00;;;13.30;76.60;;;;;;5050628;28;20196;-31
2023/10/31 09:02:00;;;;;;;0.00;0.00;;;13.30;76.60;;;;;;5050475;28;20331;-31
2023/10/31 09:04:27;;;;;;;0.00;0.00;;;13.30;76.50;;;;;;5029024;28;20753;-31
2023/10/31 09:06:54;;;;;;;0.00;0.00;;;13.30;76.60;;;;;;5025355;28;20212;-31
2023/10/31 09:09:23;;;;;;;0.00;0.00;;;13.30;76.60;;;;;;5019081;28;20296;-31
2023/10/31 09:11:53;;;;;;;0.00;0.00;;;13.30;76.80;;;;;;5029145;28;20320;-31
2023/10/31 09:14:20;;;;;;;0.00;0.00;;;13.30;76.80;;;;;;5026483;28;20315;-31
2023/10/31 09:16:50;;;;;;;0.00;0.00;;;13.40;76.90;;;;;;5028330;28;20224;-31
2023/10/31 09:19:19;;;;;;;0.00;0.00;;;13.40;76.90;;;;;;5012200;28;20202;-31
2023/10/31 09:21:49;;;;;;;0.00;0.00;;;13.40;76.90;;;;;;5010428;28;20217;-31
2023/10/31 09:24:19;;;;;;;0.00;0.00;;;13.40;76.80;;;;;;5017124;28;20308;-31
2023/10/31 09:26:49;;;;;;;0.00;0.00;;;13.50;76.80;;;;;;5029065;28;20308;-31
2023/10/31 09:29:18;;;;;;;0.00;0.00;;;13.50;76.90;;;;;;5028981;28;20355;-31
2023/10/31 09:32:00;;;;;;;0.00;0.00;;;13.50;76.80;;;;;;5017593;28;20213;-31
2023/10/31 09:34:27;;;;;;;0.00;0.00;;;13.50;76.90;;;;;;5044861;28;20228;-31
2023/10/31 09:36:55;;;;;;;0.00;0.00;;;13.50;76.90;;;;;;5016429;28;20217;-31
2023/10/31 09:39:25;;;;;;;0.00;0.00;;;13.50;76.80;;;;;;5025512;28;20200;-31
2023/10/31 09:41:59;;;;;;;0.00;0.00;;;13.60;76.90;;;;;;5024884;28;20300;-31
2023/10/31 09:44:26;;;;;;;0.00;0.00;;;13.60;76.90;;;;;;5019430;28;20314;-31
2023/10/31 09:46:57;;;;;;;0.00;0.00;;;13.60;76.90;;;;;;5012039;28;20198;-31
2023/10/31 09:49:29;;;;;;;0.00;0.00;;;13.60;77.00;;;;;;5008952;28;20325;-31
2023/10/31 09:51:59;;;;;;;0.00;0.00;;;13.70;77.10;;;;;;5009270;28;20197;-31
2023/10/31 09:54:26;;;;;;;0.00;0.00;;;13.70;77.00;;;;;;5000868;28;20233;-31
2023/10/31 09:56:56;;;;;;;0.00;0.00;;;13.70;77.00;;;;;;5025854;28;20193;-31
2023/10/31 09:59:23;;;;;;;0.00;0.00;;;13.70;76.90;;;;;;5028857;28;20303;-32
2023/10/31 10:01:50;;;;;;;0.00;0.00;;;13.80;77.00;;;;;;5011835;28;20250;-32
2023/10/31 10:04:25;;;;;;;0.00;0.00;;;13.80;77.00;;;;;;5024550;28;20761;-31
2023/10/31 10:07:02;;;;;;;0.00;0.00;;;13.80;77.00;;;;;;5020973;28;20302;-32
2023/10/31 10:09:32;;;;;;;0.00;0.00;;;13.80;76.90;;;;;;5029442;28;20232;-31
2023/10/31 10:12:05;;;;;;;0.00;0.00;;;13.90;77.10;;;;;;5012608;28;20679;-32
2023/10/31 10:14:32;;;;;;;0.00;0.00;;;13.90;77.10;;;;;;5027270;28;20255;-32
2023/10/31 10:17:01;;;;;;;0.00;0.00;;;13.90;77.10;;;;;;5027440;28;20309;-32
2023/10/31 10:19:31;;;;;;;0.00;0.00;;;13.90;77.10;;;;;;5029415;28;20259;-32
2023/10/31 10:21:59;;;;;;;0.00;0.00;;;14.00;77.20;;;;;;5029699;28;20729;-32
2023/10/31 10:24:26;;;;;;;0.00;0.00;;;14.00;77.10;;;;;;5030040;28;20201;-32
2023/10/31 10:26:56;;;;;;;0.00;0.00;;;14.00;77.10;;;;;;5025256;28;20731;-32
2023/10/31 10:29:23;;;;;;;0.00;0.00;;;14.10;77.20;;;;;;5021781;28;20734;-32
2023/10/31 10:31:55;;;;;;;0.00;0.00;;;14.10;77.20;;;;;;5013420;28;20200;-32
2023/10/31 10:34:26;;;;;;;0.00;0.00;;;14.20;77.20;;;;;;5028516;28;20229;-32
2023/10/31 10:36:57;;;;;;;0.00;0.00;;;14.20;77.20;;;;;;5027066;28;20197;-32
2023/10/31 10:39:31;;;;;;;0.00;0.00;;;14.20;77.20;;;;;;5018725;28;20207;-32
2023/10/31 10:42:01;;;;;;;0.00;0.00;;;14.30;77.20;;;;;;5014017;28;20255;-32
2023/10/31 10:44:34;;;;;;;0.00;0.00;;;14.30;77.20;;;;;;5018918;28;20710;-32
2023/10/31 10:47:06;;;;;;;0.00;0.00;;;14.30;77.20;;;;;;5027488;28;20201;-32
2023/10/31 10:49:36;;;;;;;0.00;0.00;;;14.40;77.20;;;;;;5009846;28;20232;-32
2023/10/31 10:52:25;;;;;;;0.00;0.00;;;14.40;77.00;;;;;;5038147;28;20216;-32
2023/10/31 10:55:07;;;;;;;0.00;0.00;;;14.40;77.00;;;;;;5039074;28;20312;-32
2023/10/31 10:57:38;;;;;;;0.00;0.00;;;14.40;76.90;;;;;;5028840;28;20205;-32
2023/10/31 11:00:12;;;;;;;0.00;0.00;;;14.40;77.00;;;;;;5025353;28;20710;-32
2023/10/31 11:02:46;;;;;;;0.00;0.00;;;14.40;77.00;;;;;;5002934;28;20326;-32
2023/10/31 11:05:21;;;;;;;0.00;0.00;;;14.40;76.90;;;;;;5035175;28;20206;-32
2023/10/31 11:07:49;;;;;;;0.00;0.00;;;14.40;76.90;;;;;;5029182;28;20202;-32
2023/10/31 11:10:17;;;;;;;0.00;0.00;;;14.40;77.00;;;;;;5034330;28;20232;-32
2023/10/31 11:12:50;;;;;;;0.00;0.00;;;14.50;77.00;;;;;;5038412;28;20270;-32
2023/10/31 11:15:22;;;;;;;0.00;0.00;;;14.50;77.00;;;;;;5032254;28;20208;-33
2023/10/31 11:17:54;;;;;;;0.00;0.00;;;14.50;77.00;;;;;;5045268;28;20751;-32
2023/10/31 11:20:25;;;;;;;0.00;0.00;;;14.50;77.00;;;;;;5036654;28;20676;-33
2023/10/31 11:22:57;;;;;;;0.00;0.00;;;14.50;76.90;;;;;;5021981;28;20264;-32
2023/10/31 11:25:25;;;;;;;0.00;0.00;;;14.50;76.90;;;;;;5021077;28;20201;-32
2023/10/31 11:28:12;;;;;;;0.00;0.00;;;14.60;77.00;;;;;;5013994;28;20216;-32
2023/10/31 11:30:45;;;;;;;0.00;0.00;;;14.60;77.00;;;;;;5028748;28;20197;-33
2023/10/31 11:33:20;;;;;;;0.00;0.00;;;14.60;77.00;;;;;;5034008;28;20256;-32
2023/10/31 11:36:03;;;;;;;0.00;0.00;;;14.60;77.00;;;;;;5026049;28;20219;-32
2023/10/31 11:38:33;;;;;;;0.00;0.00;;;14.60;77.00;;;;;;5010169;28;20291;-32
2023/10/31 11:41:02;;;;;;;0.00;0.00;;;14.60;77.00;;;;;;5012521;28;20945;-32
2023/10/31 11:43:53;;;;;;;0.00;0.00;;;14.70;77.10;;;;;;5010664;28;20218;-33
2023/10/31 11:46:28;;;;;;;0.00;0.00;;;14.70;77.10;;;;;;5013328;28;20296;-33
2023/10/31 11:48:59;;;;;;;0.00;0.00;;;14.70;77.00;;;;;;5014857;28;20263;-32
2023/10/31 11:51:27;;;;;;;0.00;0.00;;;14.70;77.00;;;;;;5025302;28;20201;-33
2023/10/31 11:53:54;;;;;;;0.00;0.00;;;14.70;76.90;;;;;;5026342;28;20314;-32
2023/10/31 11:56:27;;;;;;;0.00;0.00;;;14.80;77.00;;;;;;5011964;28;21086;-32
2023/10/31 11:59:09;;;;;;;0.00;0.00;;;14.80;77.00;;;;;;5025632;28;20213;-32
2023/10/31 12:01:51;;;;;;;0.00;0.00;;;14.80;77.00;;;;;;5025060;28;20303;-33
2023/10/31 12:04:23;;;;;;;0.00;0.00;;;14.80;76.90;;;;;;5029094;28;20204;-32
2023/10/31 12:07:03;;;;;;;0.00;0.00;;;14.80;76.90;;;;;;5027302;28;20219;-33
2023/10/31 12:09:32;;;;;;;0.00;0.00;;;14.80;76.90;;;;;;5025242;28;20695;-32
2023/10/31 12:12:05;;;;;;;0.00;0.00;;;14.80;76.80;;;;;;5027166;28;20205;-32
2023/10/31 12:14:34;;;;;;;0.00;0.00;;;14.80;76.70;;;;;;5027712;28;20224;-32
2023/10/31 12:17:07;;;;;;;0.00;0.00;;;14.70;76.60;;;;;;5031208;28;20212;-32
2023/10/31 12:19:34;;;;;;;0.00;0.00;;;14.70;76.70;;;;;;5037671;28;20215;-33
2023/10/31 12:22:02;;;;;;;0.00;0.00;;;14.70;76.70;;;;;;5009490;28;20220;-32
2023/10/31 12:24:32;;;;;;;0.00;0.00;;;14.70;76.70;;;;;;5021758;28;20608;-32
2023/10/31 12:27:01;;;;;;;0.00;0.00;;;14.70;76.70;;;;;;5045534;28;20315;-32
2023/10/31 12:29:28;;;;;;;0.00;0.00;;;14.70;76.70;;;;;;5025382;28;20309;-32
2023/10/31 12:31:58;;;;;;;0.00;0.00;;;14.70;76.70;;;;;;5007517;28;20210;-32
2023/10/31 12:34:25;;;;;;;0.00;0.00;;;14.70;76.70;;;;;;5021068;28;20328;-32
2023/10/31 12:36:56;;;;;;;0.00;0.00;;;14.70;76.70;;;;;;5037362;28;20258;-32
2023/10/31 12:39:28;;;;;;;0.00;0.00;;;14.70;76.70;;;;;;5030848;28;20250;-32
2023/10/31 12:41:57;;;;;;;0.00;0.00;;;14.70;76.80;;;;;;5048838;28;20208;-32
2023/10/31 12:44:27;;;;;;;0.00;0.00;;;14.70;76.80;;;;;;5027452;28;20308;-32
2023/10/31 12:46:56;;;;;;;0.00;0.00;;;14.70;76.80;;;;;;5009654;28;20329;-32
2023/10/31 12:49:23;;;;;;;0.00;0.00;;;14.70;76.80;;;;;;5017305;28;20213;-32
2023/10/31 12:51:56;;;;;;;0.00;0.00;;;14.70;76.80;;;;;;5009165;28;20197;-32
2023/10/31 12:54:34;;;;;;;0.00;0.00;;;14.70;76.80;;;;;;5018042;28;20244;-32
2023/10/31 12:57:04;;;;;;;0.00;0.00;;;14.70;76.90;;;;;;5007365;28;20248;-34
2023/10/31 12:59:33;;;;;;;0.00;0.00;;;14.70;76.80;;;;;;5027755;28;20619;-34